Time;durP1;ratioP1;P1;durP2;ratioP2;P2;SDS_P1;SDS_P2;PMS_P1;PMS_P2;Temp;Humidity;BMP_temperature;BMP_pressure;BME280_temperature;BME280_humidity;BME280_pressure;Samples;Min_cycle;Max_cycle;Signal;HPM_P1;HPM_P2
2023/03/17 00:00:15;;;;;;;0.08;0.08;;;7.60;91.90;;;;;;5031119;28;20182;-67
2023/03/17 00:02:44;;;;;;;0.00;0.00;;;7.60;91.90;;;;;;5033818;28;20235;-69
2023/03/17 00:05:24;;;;;;;0.10;0.10;;;7.60;91.90;;;;;;5038506;28;20186;-68
2023/03/17 00:07:51;;;;;;;0.20;0.20;;;7.60;91.90;;;;;;5031228;28;20178;-68
2023/03/17 00:10:21;;;;;;;0.10;0.10;;;7.60;92.00;;;;;;5032034;28;20201;-67
2023/03/17 00:12:48;;;;;;;0.00;0.00;;;7.60;92.00;;;;;;5050461;28;20182;-68
2023/03/17 00:15:13;;;;;;;0.00;0.00;;;7.50;92.00;;;;;;5030853;28;20288;-68
2023/03/17 00:17:40;;;;;;;0.00;0.00;;;7.50;92.20;;;;;;5044217;28;20225;-68
2023/03/17 00:20:10;;;;;;;0.00;0.00;;;7.50;92.20;;;;;;5049077;28;20194;-69
2023/03/17 00:22:35;;;;;;;0.00;0.00;;;7.50;92.20;;;;;;5040687;28;20189;-68
2023/03/17 00:25:01;;;;;;;0.00;0.00;;;7.50;92.20;;;;;;5033656;28;20174;-68
2023/03/17 00:27:27;;;;;;;0.00;0.00;;;7.50;92.30;;;;;;5030631;28;20523;-67
2023/03/17 00:29:52;;;;;;;0.00;0.00;;;7.50;92.10;;;;;;5038295;28;20189;-69
2023/03/17 00:32:20;;;;;;;0.00;0.00;;;7.60;92.10;;;;;;5032092;28;20680;-68
2023/03/17 00:34:46;;;;;;;0.00;0.00;;;7.60;92.20;;;;;;5051641;28;20181;-69
2023/03/17 00:37:12;;;;;;;0.00;0.00;;;7.60;92.20;;;;;;5052921;28;20220;-67
2023/03/17 00:39:38;;;;;;;0.00;0.00;;;7.60;92.00;;;;;;5052972;28;20279;-68
2023/03/17 00:42:05;;;;;;;0.00;0.00;;;7.60;92.00;;;;;;5050849;28;20186;-68
2023/03/17 00:44:31;;;;;;;0.00;0.00;;;7.60;92.10;;;;;;5034444;28;20170;-68
2023/03/17 00:46:57;;;;;;;0.00;0.00;;;7.60;91.90;;;;;;5036234;28;20236;-69
2023/03/17 00:49:25;;;;;;;0.10;0.10;;;7.60;91.90;;;;;;5046632;28;20186;-69
2023/03/17 00:51:51;;;;;;;0.00;0.00;;;7.60;92.00;;;;;;5035410;28;20182;-68
2023/03/17 00:54:18;;;;;;;0.00;0.00;;;7.70;92.00;;;;;;5035579;28;20190;-68
2023/03/17 00:56:45;;;;;;;0.10;0.10;;;7.70;92.10;;;;;;5039533;28;20279;-68
2023/03/17 00:59:16;;;;;;;0.25;0.25;;;7.70;92.30;;;;;;5047019;28;20190;-68
2023/03/17 01:01:42;;;;;;;0.00;0.00;;;7.70;92.00;;;;;;5038757;28;20178;-68
2023/03/17 01:04:09;;;;;;;0.00;0.00;;;7.70;92.00;;;;;;5054110;28;20184;-68
2023/03/17 01:06:35;;;;;;;0.00;0.00;;;7.70;92.00;;;;;;5052056;28;20209;-68
2023/03/17 01:09:03;;;;;;;0.00;0.00;;;7.70;92.00;;;;;;5052408;28;20170;-68
2023/03/17 01:11:29;;;;;;;0.00;0.00;;;7.70;92.00;;;;;;5036382;28;20645;-68
2023/03/17 01:13:55;;;;;;;0.00;0.00;;;7.70;91.90;;;;;;5035647;28;20182;-67
2023/03/17 01:16:22;;;;;;;0.00;0.00;;;7.80;91.90;;;;;;5033817;28;20221;-68
2023/03/17 01:18:48;;;;;;;0.00;0.00;;;7.70;91.90;;;;;;5033791;28;20174;-69
2023/03/17 01:21:14;;;;;;;0.00;0.00;;;7.80;91.80;;;;;;5034975;28;20181;-67
2023/03/17 01:23:40;;;;;;;0.00;0.00;;;7.80;91.80;;;;;;5037037;28;20208;-68
2023/03/17 01:26:05;;;;;;;0.00;0.00;;;7.80;91.80;;;;;;5033905;28;20217;-68
2023/03/17 01:28:31;;;;;;;0.00;0.00;;;7.80;91.70;;;;;;5049171;28;20568;-68
2023/03/17 01:30:56;;;;;;;0.00;0.00;;;7.80;91.70;;;;;;5047520;28;20525;-68
2023/03/17 01:33:24;;;;;;;0.00;0.00;;;7.80;91.70;;;;;;5047300;28;20185;-68
2023/03/17 01:35:50;;;;;;;0.00;0.00;;;7.80;91.70;;;;;;5050804;28;20609;-68
2023/03/17 01:38:16;;;;;;;0.00;0.00;;;7.80;91.80;;;;;;5034332;28;20189;-67
2023/03/17 01:40:48;;;;;;;0.00;0.00;;;7.80;91.90;;;;;;5033300;28;20253;-68
2023/03/17 01:43:28;;;;;;;0.00;0.00;;;7.70;91.80;;;;;;5033820;28;20178;-67
2023/03/17 01:46:29;;;;;;;0.00;0.00;;;7.80;91.80;;;;;;5027879;28;20174;-68
2023/03/17 01:49:05;;;;;;;0.00;0.00;;;7.80;91.70;;;;;;5023288;28;20648;-68
2023/03/17 01:51:48;;;;;;;0.00;0.00;;;7.80;91.70;;;;;;5035230;28;20534;-68
2023/03/17 01:54:34;;;;;;;0.00;0.00;;;7.80;91.80;;;;;;5033634;28;20174;-67
2023/03/17 01:57:09;;;;;;;0.00;0.00;;;7.80;91.70;;;;;;5034326;28;20219;-68
2023/03/17 01:59:41;;;;;;;0.10;0.10;;;7.80;91.70;;;;;;5040593;28;20227;-68
2023/03/17 02:02:09;;;;;;;0.00;0.00;;;7.80;91.90;;;;;;5043687;28;20197;-68
2023/03/17 02:04:36;;;;;;;0.00;0.00;;;7.80;91.80;;;;;;5036205;28;20182;-68
2023/03/17 02:07:03;;;;;;;0.00;0.00;;;7.80;91.80;;;;;;5033870;28;20182;-68
2023/03/17 02:09:30;;;;;;;0.00;0.00;;;7.80;91.90;;;;;;5032461;28;20190;-68
2023/03/17 02:11:59;;;;;;;0.00;0.00;;;7.80;91.90;;;;;;5039153;28;20179;-68
2023/03/17 02:14:25;;;;;;;0.00;0.00;;;7.80;92.00;;;;;;5033216;28;20312;-68
2023/03/17 02:16:51;;;;;;;0.00;0.00;;;7.80;92.10;;;;;;5045213;28;20313;-68
2023/03/17 02:19:17;;;;;;;0.00;0.00;;;7.80;92.30;;;;;;5038116;28;20657;-68
2023/03/17 02:21:48;;;;;;;0.10;0.10;;;7.70;92.40;;;;;;5028844;28;20186;-68
2023/03/17 02:24:20;;;;;;;0.00;0.00;;;7.70;92.60;;;;;;5040415;28;20277;-67
2023/03/17 02:26:48;;;;;;;0.00;0.00;;;7.70;92.50;;;;;;5018265;28;20327;-68
2023/03/17 02:29:14;;;;;;;0.00;0.00;;;7.70;92.80;;;;;;5032383;28;20308;-67
2023/03/17 02:31:41;;;;;;;0.00;0.00;;;7.60;93.10;;;;;;5032263;28;20170;-68
2023/03/17 02:34:06;;;;;;;0.00;0.00;;;7.60;93.30;;;;;;5036179;28;20177;-68
2023/03/17 02:36:32;;;;;;;0.13;0.13;;;7.50;93.70;;;;;;5042502;28;20213;-69
2023/03/17 02:38:58;;;;;;;0.10;0.10;;;7.50;93.60;;;;;;5032711;28;20189;-68
2023/03/17 02:41:24;;;;;;;0.00;0.00;;;7.50;93.60;;;;;;5035459;28;20197;-68
2023/03/17 02:43:50;;;;;;;0.00;0.00;;;7.40;93.40;;;;;;5031630;28;20206;-68
2023/03/17 02:46:16;;;;;;;0.00;0.00;;;7.40;93.50;;;;;;5038100;28;20182;-67
2023/03/17 02:48:42;;;;;;;0.00;0.00;;;7.40;93.80;;;;;;5033114;28;20531;-67
2023/03/17 02:51:07;;;;;;;0.00;0.00;;;7.40;93.80;;;;;;5044382;28;20194;-68
2023/03/17 02:53:33;;;;;;;0.00;0.00;;;7.40;93.70;;;;;;5034269;28;20265;-68
2023/03/17 02:55:59;;;;;;;0.00;0.00;;;7.40;93.90;;;;;;5033389;28;20224;-68
2023/03/17 02:58:24;;;;;;;0.00;0.00;;;7.40;93.80;;;;;;5034392;28;20696;-68
2023/03/17 03:00:50;;;;;;;0.00;0.00;;;7.30;93.80;;;;;;5032612;28;20171;-69
2023/03/17 03:03:16;;;;;;;0.30;0.30;;;7.30;93.90;;;;;;5051807;28;20215;-68
2023/03/17 03:05:41;;;;;;;0.00;0.00;;;7.30;93.90;;;;;;5044757;28;20186;-68
2023/03/17 03:08:07;;;;;;;0.00;0.00;;;7.30;94.00;;;;;;5031404;28;20530;-69
2023/03/17 03:10:33;;;;;;;0.00;0.00;;;7.20;94.20;;;;;;5031409;28;20618;-68
2023/03/17 03:12:58;;;;;;;0.00;0.00;;;7.20;94.30;;;;;;5050454;28;20173;-68
2023/03/17 03:15:24;;;;;;;0.00;0.00;;;7.20;94.40;;;;;;5042034;28;20650;-68
2023/03/17 03:17:50;;;;;;;0.10;0.10;;;7.20;94.60;;;;;;5030079;28;20225;-68
2023/03/17 03:20:15;;;;;;;0.03;0.03;;;7.10;94.70;;;;;;5049920;28;20181;-68
2023/03/17 03:22:41;;;;;;;0.00;0.00;;;7.10;94.80;;;;;;5039687;28;20182;-68
2023/03/17 03:25:07;;;;;;;0.00;0.00;;;7.00;94.90;;;;;;5046190;28;20178;-67
2023/03/17 03:27:33;;;;;;;0.00;0.00;;;7.00;95.00;;;;;;5031464;28;20269;-67
2023/03/17 03:29:58;;;;;;;0.00;0.00;;;6.90;94.90;;;;;;5043369;28;20264;-67
2023/03/17 03:32:24;;;;;;;0.00;0.00;;;6.80;95.30;;;;;;5048981;28;20181;-68
2023/03/17 03:34:50;;;;;;;0.00;0.00;;;6.80;95.60;;;;;;5049772;28;20554;-68
2023/03/17 03:37:16;;;;;;;0.20;0.15;;;6.70;95.90;;;;;;5039282;28;20228;-67
2023/03/17 03:39:41;;;;;;;0.00;0.00;;;6.60;96.30;;;;;;5033715;28;20190;-67
2023/03/17 03:42:07;;;;;;;0.00;0.00;;;6.60;96.50;;;;;;5031330;28;20178;-67
2023/03/17 03:44:33;;;;;;;0.00;0.00;;;6.50;96.30;;;;;;5039829;28;20268;-67
2023/03/17 03:46:58;;;;;;;0.00;0.00;;;6.50;96.70;;;;;;5034735;28;20186;-68
2023/03/17 03:49:24;;;;;;;0.00;0.00;;;6.50;96.80;;;;;;5041343;28;20528;-67
2023/03/17 03:51:49;;;;;;;0.00;0.00;;;6.40;96.90;;;;;;5030525;28;20519;-67
2023/03/17 03:54:15;;;;;;;0.00;0.00;;;6.40;96.90;;;;;;5033235;28;20273;-67
2023/03/17 03:56:41;;;;;;;0.00;0.00;;;6.40;97.00;;;;;;5030650;28;20296;-68
2023/03/17 03:59:07;;;;;;;0.10;0.10;;;6.30;97.00;;;;;;5031701;28;20257;-68
2023/03/17 04:01:33;;;;;;;0.00;0.00;;;6.30;97.20;;;;;;5035405;28;20187;-68
2023/03/17 04:03:58;;;;;;;0.10;0.10;;;6.30;97.40;;;;;;5037032;28;20174;-69
2023/03/17 04:06:24;;;;;;;0.00;0.00;;;6.30;97.50;;;;;;5045015;28;20185;-68
2023/03/17 04:08:49;;;;;;;0.00;0.00;;;6.20;97.60;;;;;;5032332;28;20174;-69
2023/03/17 04:11:15;;;;;;;0.00;0.00;;;6.20;97.80;;;;;;5033084;28;20182;-70
2023/03/17 04:13:41;;;;;;;0.00;0.00;;;6.20;97.90;;;;;;5033757;28;20174;-72
2023/03/17 04:16:07;;;;;;;0.00;0.00;;;6.10;98.00;;;;;;5030390;28;20229;-69
2023/03/17 04:18:34;;;;;;;0.00;0.00;;;6.10;98.20;;;;;;5030609;28;20202;-69
2023/03/17 04:21:00;;;;;;;0.00;0.00;;;6.00;98.30;;;;;;5030961;28;20177;-69
2023/03/17 04:23:26;;;;;;;0.00;0.00;;;6.00;98.40;;;;;;5030619;28;20573;-68
2023/03/17 04:25:52;;;;;;;0.00;0.00;;;6.00;98.60;;;;;;5030976;28;20186;-69
2023/03/17 04:28:18;;;;;;;0.00;0.00;;;6.00;98.50;;;;;;5030803;28;20229;-69
2023/03/17 04:30:44;;;;;;;0.00;0.00;;;5.90;98.50;;;;;;5030508;28;20177;-68
2023/03/17 04:33:10;;;;;;;0.00;0.00;;;5.90;98.40;;;;;;5030916;28;20178;-67
2023/03/17 04:35:36;;;;;;;0.00;0.00;;;5.90;98.60;;;;;;5030640;28;20644;-69
2023/03/17 04:38:02;;;;;;;0.00;0.00;;;5.90;98.60;;;;;;5030865;28;20863;-67
2023/03/17 04:40:27;;;;;;;0.00;0.00;;;5.80;98.50;;;;;;5030856;28;20257;-68
2023/03/17 04:42:53;;;;;;;0.00;0.00;;;5.80;98.70;;;;;;5029708;28;20186;-69
2023/03/17 04:45:18;;;;;;;0.00;0.00;;;5.80;98.70;;;;;;5030234;28;20247;-70
2023/03/17 04:47:47;;;;;;;0.10;0.10;;;5.70;98.80;;;;;;5030152;28;20918;-65
2023/03/17 04:50:13;;;;;;;0.10;0.10;;;5.70;98.90;;;;;;5030503;28;20572;-65
2023/03/17 04:52:39;;;;;;;0.00;0.00;;;5.60;99.00;;;;;;5030514;28;20745;-62
2023/03/17 04:55:10;;;;;;;0.00;0.00;;;5.60;99.10;;;;;;5029707;28;20186;-64
2023/03/17 04:57:36;;;;;;;0.00;0.00;;;5.50;99.30;;;;;;5030526;28;20295;-61
2023/03/17 05:00:04;;;;;;;0.00;0.00;;;5.50;99.50;;;;;;5030490;28;20221;-69
2023/03/17 05:02:29;;;;;;;0.00;0.00;;;5.40;99.60;;;;;;5030820;28;20245;-67
2023/03/17 05:04:56;;;;;;;0.00;0.00;;;5.40;99.80;;;;;;5031084;28;20205;-67
2023/03/17 05:07:21;;;;;;;0.00;0.00;;;5.30;99.90;;;;;;5030312;28;20190;-64
2023/03/17 05:09:47;;;;;;;0.00;0.00;;;5.30;99.90;;;;;;5031658;28;20184;-64
2023/03/17 05:12:13;;;;;;;0.00;0.00;;;5.30;99.90;;;;;;5032575;28;20182;-65
2023/03/17 05:14:39;;;;;;;0.00;0.00;;;5.30;99.90;;;;;;5047379;28;20277;-65
2023/03/17 05:17:05;;;;;;;0.05;0.03;;;5.20;99.90;;;;;;5036360;28;20296;-65
2023/03/17 05:19:30;;;;;;;0.00;0.00;;;5.20;99.90;;;;;;5033826;28;20651;-65
2023/03/17 05:21:56;;;;;;;0.00;0.00;;;5.20;99.90;;;;;;5053662;28;20185;-65
2023/03/17 05:24:22;;;;;;;0.00;0.00;;;5.20;99.90;;;;;;5053688;28;20174;-64
2023/03/17 05:26:47;;;;;;;0.00;0.00;;;5.20;99.90;;;;;;5053811;28;20178;-65
2023/03/17 05:29:13;;;;;;;0.00;0.00;;;5.20;99.90;;;;;;5053747;28;20253;-65
2023/03/17 05:31:38;;;;;;;0.00;0.00;;;5.10;99.90;;;;;;5053738;28;20256;-64
2023/03/17 05:34:04;;;;;;;0.00;0.00;;;5.10;99.90;;;;;;5053670;28;20217;-64
2023/03/17 05:36:30;;;;;;;0.00;0.00;;;5.10;99.90;;;;;;5053401;28;20288;-64
2023/03/17 05:38:56;;;;;;;0.00;0.00;;;5.10;99.90;;;;;;5052445;28;20220;-64
2023/03/17 05:41:22;;;;;;;0.00;0.00;;;5.10;99.90;;;;;;5053507;28;20682;-64
2023/03/17 05:43:47;;;;;;;0.00;0.00;;;5.10;99.90;;;;;;5053521;28;20181;-64
2023/03/17 05:46:13;;;;;;;0.00;0.00;;;5.10;99.90;;;;;;5053637;28;20170;-64
2023/03/17 05:48:39;;;;;;;0.00;0.00;;;5.00;99.90;;;;;;5051662;28;20175;-63
2023/03/17 05:51:05;;;;;;;0.00;0.00;;;5.00;99.90;;;;;;5032964;28;20224;-64
2023/03/17 05:53:31;;;;;;;0.00;0.00;;;5.00;99.90;;;;;;5032955;28;20528;-64
2023/03/17 05:55:57;;;;;;;0.00;0.00;;;5.00;99.90;;;;;;5032980;28;20198;-65
2023/03/17 05:58:22;;;;;;;0.00;0.00;;;5.00;99.90;;;;;;5032872;28;20181;-64
2023/03/17 06:00:48;;;;;;;0.00;0.00;;;5.10;99.90;;;;;;5032881;28;20166;-64
2023/03/17 06:03:13;;;;;;;0.00;0.00;;;5.10;99.90;;;;;;5032840;28;20193;-64
2023/03/17 06:05:39;;;;;;;0.00;0.00;;;5.10;99.90;;;;;;5032730;28;20179;-64
2023/03/17 06:08:05;;;;;;;0.00;0.00;;;5.20;99.90;;;;;;5032706;28;20228;-64
2023/03/17 06:10:31;;;;;;;0.00;0.00;;;5.30;99.90;;;;;;5032676;28;20225;-64
2023/03/17 06:12:57;;;;;;;0.00;0.00;;;5.30;99.90;;;;;;5032751;28;20244;-64
2023/03/17 06:15:23;;;;;;;0.00;0.00;;;5.40;99.90;;;;;;5032310;28;20267;-64
2023/03/17 06:17:49;;;;;;;0.00;0.00;;;5.40;99.90;;;;;;5032665;28;20222;-64
2023/03/17 06:20:15;;;;;;;0.00;0.00;;;5.40;99.90;;;;;;5032509;28;20180;-65
2023/03/17 06:22:41;;;;;;;0.00;0.00;;;5.50;99.90;;;;;;5032496;28;20205;-65
2023/03/17 06:25:09;;;;;;;0.00;0.00;;;5.60;99.90;;;;;;5032552;28;20685;-65
2023/03/17 06:27:36;;;;;;;0.00;0.00;;;5.60;99.90;;;;;;5032374;28;20310;-65
2023/03/17 06:30:01;;;;;;;0.00;0.00;;;5.70;99.90;;;;;;5032185;28;20178;-64
2023/03/17 06:32:27;;;;;;;0.00;0.00;;;5.80;99.90;;;;;;5032481;28;20870;-64
2023/03/17 06:34:53;;;;;;;0.00;0.00;;;5.90;99.90;;;;;;5032481;28;20174;-64
2023/03/17 06:37:20;;;;;;;0.00;0.00;;;5.90;99.90;;;;;;5032390;28;20218;-64
2023/03/17 06:39:46;;;;;;;0.00;0.00;;;6.00;99.90;;;;;;5032150;28;20622;-64
2023/03/17 06:42:12;;;;;;;0.00;0.00;;;6.10;99.90;;;;;;5032334;28;20178;-64
2023/03/17 06:44:38;;;;;;;0.00;0.00;;;6.30;99.90;;;;;;5032329;28;20182;-64
2023/03/17 06:47:04;;;;;;;0.00;0.00;;;6.40;99.90;;;;;;5032066;28;20255;-64
2023/03/17 06:49:30;;;;;;;0.00;0.00;;;6.70;99.90;;;;;;5031978;28;20726;-64
2023/03/17 06:51:56;;;;;;;0.00;0.00;;;7.00;99.90;;;;;;5031992;28;20723;-64
2023/03/17 06:54:24;;;;;;;0.00;0.00;;;7.40;99.90;;;;;;5032091;28;20522;-64
2023/03/17 06:56:52;;;;;;;0.00;0.00;;;7.80;99.90;;;;;;5031919;28;20795;-64
2023/03/17 06:59:19;;;;;;;0.00;0.00;;;8.10;99.70;;;;;;5031892;28;20244;-64
2023/03/17 07:01:45;;;;;;;0.00;0.00;;;8.40;99.10;;;;;;5031750;28;20517;-64
2023/03/17 07:04:11;;;;;;;0.00;0.00;;;8.60;98.30;;;;;;5032013;28;20170;-64
2023/03/17 07:06:36;;;;;;;0.00;0.00;;;8.70;97.80;;;;;;5030540;28;20174;-64
2023/03/17 07:09:02;;;;;;;0.00;0.00;;;8.80;98.00;;;;;;5031878;28;20611;-64
2023/03/17 07:11:29;;;;;;;0.00;0.00;;;9.00;98.00;;;;;;5031733;28;20269;-64
2023/03/17 07:13:55;;;;;;;0.00;0.00;;;9.30;98.00;;;;;;5031951;28;20220;-65
2023/03/17 07:16:21;;;;;;;0.00;0.00;;;9.50;97.60;;;;;;5031638;28;20234;-65
2023/03/17 07:18:46;;;;;;;0.00;0.00;;;9.80;97.20;;;;;;5031812;28;20178;-65
2023/03/17 07:21:12;;;;;;;0.00;0.00;;;10.10;96.20;;;;;;5031820;28;20252;-65
2023/03/17 07:23:37;;;;;;;0.00;0.00;;;10.30;95.60;;;;;;5031636;28;20186;-65
2023/03/17 07:26:03;;;;;;;0.00;0.00;;;10.50;95.30;;;;;;5031609;28;20542;-65
2023/03/17 07:28:29;;;;;;;0.00;0.00;;;10.60;94.60;;;;;;5031556;28;20182;-66
2023/03/17 07:30:56;;;;;;;0.00;0.00;;;10.60;94.60;;;;;;5031669;28;20185;-65
2023/03/17 07:33:23;;;;;;;0.00;0.00;;;10.70;94.50;;;;;;5031582;28;20178;-65
2023/03/17 07:35:49;;;;;;;0.00;0.00;;;10.80;94.30;;;;;;5030125;28;20174;-65
2023/03/17 07:38:17;;;;;;;0.00;0.00;;;10.90;94.40;;;;;;5031496;28;20649;-65
2023/03/17 07:40:46;;;;;;;0.00;0.00;;;11.00;94.60;;;;;;5031517;28;20181;-65
2023/03/17 07:43:12;;;;;;;0.00;0.00;;;11.20;93.70;;;;;;5030906;28;20171;-65
2023/03/17 07:45:38;;;;;;;0.00;0.00;;;11.30;93.20;;;;;;5031301;28;20192;-65
2023/03/17 07:48:05;;;;;;;0.00;0.00;;;11.40;92.70;;;;;;5031185;28;20177;-65
2023/03/17 07:50:32;;;;;;;0.00;0.00;;;11.30;92.30;;;;;;5031213;28;20200;-65
2023/03/17 07:52:57;;;;;;;0.22;0.22;;;11.30;91.90;;;;;;5031416;28;20265;-64
2023/03/17 07:55:23;;;;;;;0.00;0.00;;;11.20;91.70;;;;;;5031199;28;20268;-65
2023/03/17 07:57:48;;;;;;;0.00;0.00;;;11.20;92.20;;;;;;5030918;28;20224;-64
2023/03/17 08:00:15;;;;;;;0.00;0.00;;;11.20;92.40;;;;;;5031046;28;20531;-64
2023/03/17 08:02:41;;;;;;;0.00;0.00;;;11.40;92.40;;;;;;5030986;28;20190;-64
2023/03/17 08:05:07;;;;;;;0.63;0.52;;;11.50;92.10;;;;;;5030909;28;20206;-65
2023/03/17 08:07:33;;;;;;;0.40;0.25;;;11.60;91.90;;;;;;5030907;28;20166;-63
2023/03/17 08:09:59;;;;;;;0.00;0.00;;;11.70;91.80;;;;;;5030947;28;20178;-63
2023/03/17 08:12:24;;;;;;;0.00;0.00;;;11.80;91.90;;;;;;5030659;28;20365;-63
2023/03/17 08:14:51;;;;;;;0.00;0.00;;;11.90;91.70;;;;;;5030651;28;20184;-63
2023/03/17 08:17:16;;;;;;;0.00;0.00;;;12.40;92.30;;;;;;5030639;28;20590;-63
2023/03/17 08:19:42;;;;;;;0.00;0.00;;;13.00;91.20;;;;;;5030861;28;20264;-64
2023/03/17 08:22:09;;;;;;;0.00;0.00;;;13.60;90.80;;;;;;5030567;28;20182;-64
2023/03/17 08:24:35;;;;;;;0.00;0.00;;;14.10;89.70;;;;;;5029474;28;20170;-64
2023/03/17 08:27:01;;;;;;;0.00;0.00;;;14.60;86.10;;;;;;5031250;28;20201;-64
2023/03/17 08:29:27;;;;;;;0.00;0.00;;;14.80;83.40;;;;;;5030873;28;20173;-64
2023/03/17 08:31:53;;;;;;;0.00;0.00;;;14.80;83.10;;;;;;5030962;28;20216;-64
2023/03/17 08:34:19;;;;;;;0.00;0.00;;;14.80;82.10;;;;;;5030983;28;20201;-64
2023/03/17 08:36:44;;;;;;;0.08;0.08;;;14.90;81.50;;;;;;5030721;28;20213;-64
2023/03/17 08:39:10;;;;;;;0.00;0.00;;;15.00;81.30;;;;;;5031041;28;20174;-64
2023/03/17 08:41:37;;;;;;;0.00;0.00;;;15.20;81.30;;;;;;5030805;28;20194;-64
2023/03/17 08:44:02;;;;;;;0.00;0.00;;;15.50;80.50;;;;;;5030881;28;20170;-64
2023/03/17 08:46:31;;;;;;;0.00;0.00;;;16.00;79.70;;;;;;5029423;28;20185;-64
2023/03/17 08:48:58;;;;;;;0.00;0.00;;;16.50;77.20;;;;;;5030716;28;20186;-64
2023/03/17 08:51:27;;;;;;;0.00;0.00;;;17.00;76.30;;;;;;5029392;28;20577;-64
2023/03/17 08:53:54;;;;;;;0.00;0.00;;;17.30;75.40;;;;;;5032962;28;20666;-64
2023/03/17 08:56:21;;;;;;;0.00;0.00;;;17.70;75.80;;;;;;5034564;28;20217;-64
2023/03/17 08:58:47;;;;;;;0.00;0.00;;;18.00;73.20;;;;;;5033363;28;20170;-64
2023/03/17 09:01:14;;;;;;;0.00;0.00;;;18.30;73.90;;;;;;5034668;28;20205;-64
2023/03/17 09:03:41;;;;;;;0.00;0.00;;;18.40;72.50;;;;;;5033372;28;20177;-64
2023/03/17 09:06:10;;;;;;;0.00;0.00;;;18.50;72.10;;;;;;5034442;28;20174;-64
2023/03/17 09:08:39;;;;;;;0.00;0.00;;;18.50;70.70;;;;;;5034497;28;20197;-64
2023/03/17 09:11:09;;;;;;;0.00;0.00;;;18.60;69.50;;;;;;5034399;28;20186;-64
2023/03/17 09:13:37;;;;;;;0.10;0.10;;;18.60;69.10;;;;;;5034497;28;20264;-64
2023/03/17 09:16:03;;;;;;;0.00;0.00;;;18.70;68.90;;;;;;5034042;28;20760;-65
2023/03/17 09:18:30;;;;;;;0.00;0.00;;;18.80;69.00;;;;;;5034402;28;20178;-64
2023/03/17 09:20:56;;;;;;;0.03;0.03;;;19.10;65.90;;;;;;5034316;28;20165;-64
2023/03/17 09:23:22;;;;;;;0.00;0.00;;;19.40;65.10;;;;;;5034160;28;20181;-64
2023/03/17 09:25:47;;;;;;;0.00;0.00;;;19.60;65.20;;;;;;5034214;28;20525;-64
2023/03/17 09:28:13;;;;;;;0.00;0.00;;;19.80;65.50;;;;;;5034197;28;20175;-64
2023/03/17 09:30:42;;;;;;;0.00;0.00;;;;;;;;;;5034129;28;20183;-64
2023/03/17 09:33:12;;;;;;;0.00;0.00;;;20.10;62.50;;;;;;5033996;28;20171;-64
2023/03/17 09:35:38;;;;;;;0.00;0.00;;;20.20;62.90;;;;;;5033910;28;20173;-64
2023/03/17 09:38:05;;;;;;;0.00;0.00;;;20.30;63.40;;;;;;5033841;28;20217;-64
2023/03/17 09:40:36;;;;;;;0.00;0.00;;;20.40;63.60;;;;;;5033958;28;20175;-64
2023/03/17 09:43:16;;;;;;;0.00;0.00;;;20.50;64.50;;;;;;5033884;28;20682;-64
2023/03/17 09:45:43;;;;;;;0.00;0.00;;;20.40;61.60;;;;;;5033875;28;20680;-64
2023/03/17 09:48:47;;;;;;;0.00;0.00;;;20.30;62.30;;;;;;5033605;28;20637;-64
2023/03/17 09:51:17;;;;;;;0.00;0.00;;;20.30;61.10;;;;;;5033769;28;20580;-64
2023/03/17 09:53:58;;;;;;;0.00;0.00;;;20.30;61.00;;;;;;5033523;28;20625;-64
2023/03/17 09:56:26;;;;;;;0.00;0.00;;;20.30;60.00;;;;;;5033445;28;20218;-65
2023/03/17 09:58:56;;;;;;;0.00;0.00;;;20.50;60.00;;;;;;5033623;28;20530;-64
2023/03/17 10:01:22;;;;;;;0.00;0.00;;;20.60;60.50;;;;;;5033588;28;20251;-64
2023/03/17 10:03:49;;;;;;;0.00;0.00;;;20.60;58.80;;;;;;5033499;28;20653;-64
2023/03/17 10:06:41;;;;;;;0.00;0.00;;;20.70;57.10;;;;;;5032845;28;20221;-64
2023/03/17 10:09:25;;;;;;;0.00;0.00;;;20.80;55.70;;;;;;5033377;28;20264;-64
2023/03/17 10:12:18;;;;;;;0.00;0.00;;;20.70;52.50;;;;;;5033447;28;20182;-64
2023/03/17 10:15:17;;;;;;;0.00;0.00;;;20.50;54.70;;;;;;5033181;28;20201;-64
2023/03/17 10:17:42;;;;;;;0.00;0.00;;;20.50;53.60;;;;;;5033393;28;20729;-64
2023/03/17 10:20:20;;;;;;;0.00;0.00;;;20.50;53.50;;;;;;5033064;28;20186;-64
2023/03/17 10:22:51;;;;;;;0.00;0.00;;;20.50;51.80;;;;;;5033050;28;20216;-64
2023/03/17 10:25:22;;;;;;;0.08;0.03;;;20.50;53.10;;;;;;5033011;28;20174;-64
2023/03/17 10:27:54;;;;;;;0.20;0.20;;;20.60;53.20;;;;;;5032896;28;20199;-64
2023/03/17 10:30:22;;;;;;;0.00;0.00;;;20.60;52.60;;;;;;5032917;28;20183;-65
2023/03/17 10:32:48;;;;;;;0.00;0.00;;;20.60;52.70;;;;;;5032893;28;20512;-64
2023/03/17 10:35:15;;;;;;;0.00;0.00;;;20.40;52.80;;;;;;5032795;28;20178;-64
2023/03/17 10:37:42;;;;;;;0.00;0.00;;;20.10;53.20;;;;;;5031417;28;20221;-64
2023/03/17 10:40:20;;;;;;;0.00;0.00;;;19.90;53.80;;;;;;5032537;28;20182;-64
2023/03/17 10:42:48;;;;;;;0.00;0.00;;;19.70;53.90;;;;;;5032730;28;20174;-64
2023/03/17 10:45:29;;;;;;;0.00;0.00;;;19.50;54.90;;;;;;5032662;28;20261;-64
2023/03/17 10:47:57;;;;;;;0.00;0.00;;;19.40;54.50;;;;;;5032679;28;20178;-65
2023/03/17 10:50:31;;;;;;;0.00;0.00;;;19.30;55.20;;;;;;5032281;28;20188;-65
2023/03/17 10:53:06;;;;;;;0.00;0.00;;;19.30;54.70;;;;;;5032632;28;20182;-64
2023/03/17 10:55:47;;;;;;;0.10;0.10;;;19.20;54.90;;;;;;5032295;28;20577;-64
2023/03/17 10:58:15;;;;;;;0.00;0.00;;;19.10;55.50;;;;;;5032481;28;20216;-64
2023/03/17 11:00:56;;;;;;;0.00;0.00;;;19.00;55.90;;;;;;5032402;28;20237;-64
2023/03/17 11:03:38;;;;;;;0.00;0.00;;;18.80;56.40;;;;;;5032311;28;20590;-64
2023/03/17 11:06:07;;;;;;;0.00;0.00;;;18.60;56.50;;;;;;5032283;28;20186;-64
2023/03/17 11:08:37;;;;;;;0.32;0.32;;;18.40;57.00;;;;;;5031961;28;20680;-64
2023/03/17 11:11:06;;;;;;;0.05;0.05;;;18.40;58.50;;;;;;5032261;28;20178;-64
2023/03/17 11:13:32;;;;;;;0.00;0.00;;;18.50;59.80;;;;;;5030783;28;20174;-64
2023/03/17 11:16:22;;;;;;;0.00;0.00;;;18.60;59.30;;;;;;5031565;28;20233;-64
2023/03/17 11:18:51;;;;;;;0.00;0.00;;;18.70;59.70;;;;;;5031751;28;20166;-64
2023/03/17 11:21:21;;;;;;;0.00;0.00;;;18.80;59.80;;;;;;5031924;28;20212;-64
2023/03/17 11:23:51;;;;;;;0.00;0.00;;;18.90;60.00;;;;;;5031982;28;20182;-64
2023/03/17 11:26:53;;;;;;;0.00;0.00;;;19.10;59.50;;;;;;5031905;28;20178;-64
2023/03/17 11:29:47;;;;;;;0.00;0.00;;;19.10;59.20;;;;;;5031701;28;20331;-64
2023/03/17 11:32:31;;;;;;;0.08;0.08;;;19.00;58.60;;;;;;5031890;28;20531;-64
2023/03/17 11:35:35;;;;;;;0.00;0.00;;;18.90;59.00;;;;;;5031822;28;20228;-64
2023/03/17 11:38:03;;;;;;;0.00;0.00;;;19.00;59.20;;;;;;5030491;28;20577;-64
2023/03/17 11:40:51;;;;;;;0.00;0.00;;;19.20;59.20;;;;;;5031646;28;20224;-64
2023/03/17 11:43:58;;;;;;;0.00;0.00;;;19.30;58.80;;;;;;5031616;28;20533;-64
2023/03/17 11:46:35;;;;;;;0.00;0.00;;;19.50;59.20;;;;;;5031436;28;20641;-65
2023/03/17 11:49:21;;;;;;;0.00;0.00;;;19.60;59.50;;;;;;5031556;28;20264;-64
2023/03/17 11:51:53;;;;;;;0.00;0.00;;;19.70;59.00;;;;;;5031488;28;20199;-64
2023/03/17 11:54:33;;;;;;;0.00;0.00;;;19.80;58.20;;;;;;5031370;28;20641;-65
2023/03/17 11:57:20;;;;;;;0.00;0.00;;;19.80;58.70;;;;;;5031402;28;20282;-64
2023/03/17 12:00:03;;;;;;;0.00;0.00;;;19.90;59.70;;;;;;5031301;28;20200;-64
2023/03/17 12:02:35;;;;;;;0.00;0.00;;;20.00;57.60;;;;;;5031446;28;20184;-64
2023/03/17 12:05:22;;;;;;;0.00;0.00;;;20.10;58.40;;;;;;5031542;28;20215;-64
2023/03/17 12:08:05;;;;;;;0.00;0.00;;;20.30;57.80;;;;;;5031224;28;20221;-64
2023/03/17 12:10:46;;;;;;;0.00;0.00;;;20.40;57.40;;;;;;5031340;28;20228;-64
2023/03/17 12:13:20;;;;;;;0.00;0.00;;;20.50;56.80;;;;;;5031230;28;20544;-64
2023/03/17 12:15:50;;;;;;;0.00;0.00;;;20.70;56.80;;;;;;5030974;28;20224;-64
2023/03/17 12:18:19;;;;;;;0.32;0.30;;;20.80;56.30;;;;;;5031169;28;21196;-64
2023/03/17 12:21:00;;;;;;;0.00;0.00;;;20.80;55.90;;;;;;5031047;28;20185;-64
2023/03/17 12:23:51;;;;;;;0.00;0.00;;;20.80;55.70;;;;;;5030871;28;20185;-64
2023/03/17 12:26:57;;;;;;;0.00;0.00;;;20.80;55.70;;;;;;5030992;28;20169;-64
2023/03/17 12:29:48;;;;;;;0.00;0.00;;;20.50;55.20;;;;;;5029853;28;20193;-64
2023/03/17 12:32:20;;;;;;;0.00;0.00;;;20.50;56.20;;;;;;5031055;28;20185;-64
2023/03/17 12:34:55;;;;;;;0.00;0.00;;;20.50;56.40;;;;;;5030794;28;20210;-64
2023/03/17 12:37:23;;;;;;;0.00;0.00;;;20.60;56.00;;;;;;5030759;28;20210;-64
2023/03/17 12:40:11;;;;;;;0.00;0.00;;;20.60;55.80;;;;;;5030839;28;20232;-64
2023/03/17 12:42:52;;;;;;;0.00;0.00;;;20.70;56.20;;;;;;5029611;28;20582;-64
2023/03/17 12:45:26;;;;;;;0.00;0.00;;;20.80;56.70;;;;;;5030930;28;20245;-64
2023/03/17 12:48:11;;;;;;;0.00;0.00;;;20.80;56.40;;;;;;5030822;28;20174;-64
2023/03/17 12:51:05;;;;;;;0.00;0.00;;;20.90;56.80;;;;;;5030614;28;20174;-64
2023/03/17 12:53:40;;;;;;;0.00;0.00;;;20.80;56.00;;;;;;5030777;28;20182;-63
2023/03/17 12:56:27;;;;;;;0.00;0.00;;;20.80;56.10;;;;;;5030412;28;20213;-64
2023/03/17 12:59:05;;;;;;;0.03;0.03;;;20.80;56.30;;;;;;5030689;28;20178;-64
2023/03/17 13:01:42;;;;;;;0.00;0.00;;;20.80;56.00;;;;;;5030694;28;20212;-64
2023/03/17 13:04:28;;;;;;;0.00;0.00;;;20.70;55.90;;;;;;5030565;28;20657;-65